createdAt,value
2019-03-03T00:00:25.321Z,97158.39
2019-03-03T00:05:19.906Z,97165.24
2019-03-03T00:10:14.735Z,97168.25
2019-03-03T00:15:12.218Z,97171.39
2019-03-03T00:20:11.056Z,97168.58
2019-03-03T00:25:08.624Z,97176.57
2019-03-03T00:30:03.583Z,97165.09
2019-03-03T00:34:58.152Z,97169.72
2019-03-03T00:39:54.384Z,97173.74
2019-03-03T00:44:50.595Z,97169.00
2019-03-03T00:49:58.560Z,97170.70
2019-03-03T00:55:09.472Z,97163.59
2019-03-03T01:00:08.720Z,97170.03
2019-03-03T01:05:16.962Z,97166.39
2019-03-03T01:10:29.271Z,97156.41
2019-03-03T01:15:28.337Z,97152.61
2019-03-03T01:20:24.563Z,97156.60
2019-03-03T01:25:19.139Z,97149.99
2019-03-03T01:30:14.461Z,97142.17
2019-03-03T01:35:11.450Z,97139.90
2019-03-03T01:40:10.779Z,97140.41
2019-03-03T01:45:15.019Z,97125.08
2019-03-03T01:50:12.872Z,97119.58
2019-03-03T01:55:13.308Z,97115.95
2019-03-03T02:00:28.936Z,97112.06
2019-03-03T02:05:23.691Z,97116.78
2019-03-03T02:10:21.819Z,97105.92
2019-03-03T02:15:16.660Z,97101.91
2019-03-03T02:20:12.863Z,97107.74
2019-03-03T02:25:15.419Z,97107.63
2019-03-03T02:30:17.120Z,97101.69
2019-03-03T02:35:11.757Z,97112.55
2019-03-03T02:40:16.782Z,97114.68
2019-03-03T02:45:15.064Z,97107.86
2019-03-03T02:50:15.292Z,97104.34
2019-03-03T02:55:13.566Z,97081.98
2019-03-03T03:00:23.418Z,97099.17
2019-03-03T03:05:22.125Z,97101.88
2019-03-03T03:10:27.668Z,97112.88
2019-03-03T03:15:26.742Z,97103.45
2019-03-03T03:20:31.869Z,97081.64
2019-03-03T03:25:44.444Z,97074.22
2019-03-03T03:30:40.654Z,97075.22
2019-03-03T03:35:36.889Z,97073.72
2019-03-03T03:40:34.085Z,97085.31
2019-03-03T03:45:39.127Z,97094.84
2019-03-03T03:50:47.329Z,97090.69
2019-03-03T03:55:53.264Z,97078.11
2019-03-03T04:01:01.468Z,97066.95
2019-03-03T04:06:07.976Z,97064.93
2019-03-03T04:11:19.194Z,97074.45
2019-03-03T04:16:18.077Z,97067.81
2019-03-03T04:21:22.774Z,97068.02
2019-03-03T04:26:27.967Z,97065.27
2019-03-03T04:31:24.169Z,97070.61
2019-03-03T04:36:23.101Z,97068.77
2019-03-03T04:41:22.317Z,97064.45
2019-03-03T04:46:27.483Z,97062.25
2019-03-03T04:51:27.299Z,97059.49
2019-03-03T04:56:23.522Z,97055.53
2019-03-03T05:01:31.518Z,97056.68
2019-03-03T05:06:33.573Z,97053.08
2019-03-03T05:12:19.292Z,97060.58
2019-03-03T05:17:18.154Z,97061.38
2019-03-03T05:22:12.739Z,97058.14
2019-03-03T05:27:07.302Z,97057.56
2019-03-03T05:32:01.900Z,97041.28
2019-03-03T05:36:56.478Z,97036.61
2019-03-03T05:41:51.126Z,97036.81
2019-03-03T05:46:45.696Z,97033.45
2019-03-03T05:51:40.358Z,97030.43
2019-03-03T05:56:34.914Z,97032.42
2019-03-03T06:01:29.505Z,97030.22
2019-03-03T06:06:24.071Z,97041.75
2019-03-03T06:11:18.657Z,97040.03
2019-03-03T06:16:13.225Z,97027.99
2019-03-03T06:21:07.890Z,97024.38
2019-03-03T06:26:02.467Z,97012.79
2019-03-03T06:30:57.055Z,97018.95
2019-03-03T06:35:52.838Z,97014.14
2019-03-03T06:40:47.705Z,97016.17
2019-03-03T06:45:42.262Z,97024.99
2019-03-03T06:50:36.853Z,97028.05
2019-03-03T06:55:31.431Z,97038.59
2019-03-03T07:00:26.026Z,97035.67
2019-03-03T07:05:20.600Z,97040.70
2019-03-03T07:10:15.616Z,97044.80
2019-03-03T07:15:16.572Z,97049.72
2019-03-03T07:20:13.758Z,97045.38
2019-03-03T07:25:12.498Z,97046.92
2019-03-03T07:30:15.670Z,97043.84
2019-03-03T07:35:10.253Z,97046.11
2019-03-03T07:40:07.349Z,97044.34
2019-03-03T07:45:01.917Z,97035.63
2019-03-03T07:49:56.503Z,97031.30
2019-03-03T07:54:51.070Z,97027.20
2019-03-03T07:59:45.666Z,97037.80
2019-03-03T08:04:40.251Z,97041.63
2019-03-03T08:09:34.843Z,97049.98
2019-03-03T08:14:29.452Z,97041.02
2019-03-03T08:19:24.078Z,97033.91
2019-03-03T08:24:18.637Z,97042.59
2019-03-03T08:29:13.287Z,97050.97
2019-03-03T08:34:07.849Z,97037.12
2019-03-03T08:39:02.450Z,97028.67
2019-03-03T08:43:58.680Z,97019.08
2019-03-03T08:49:06.408Z,97011.56
2019-03-03T08:54:03.571Z,97014.13
2019-03-03T08:59:00.791Z,97025.69
2019-03-03T09:04:13.259Z,97005.45
2019-03-03T09:09:26.765Z,97003.33
2019-03-03T09:14:39.107Z,97005.43
2019-03-03T09:19:50.270Z,96994.78
2019-03-03T09:24:46.499Z,96987.70
2019-03-03T09:29:42.737Z,96979.00
2019-03-03T09:34:56.742Z,96982.89
2019-03-03T09:40:09.720Z,96984.08
2019-03-03T09:45:07.700Z,96979.98
2019-03-03T09:50:06.407Z,96987.73
2019-03-03T09:55:08.071Z,96990.42
2019-03-03T10:00:04.407Z,96990.30
2019-03-03T10:05:00.631Z,96995.61
2019-03-03T10:10:02.625Z,97005.09
2019-03-03T10:15:14.992Z,96991.27
2019-03-03T10:20:19.736Z,96986.01
2019-03-03T10:25:25.960Z,96972.64
2019-03-03T10:30:22.178Z,96962.34
2019-03-03T10:35:21.217Z,96968.00
2019-03-03T10:40:20.807Z,96961.08
2019-03-03T10:45:17.039Z,96961.08
2019-03-03T10:50:30.088Z,96963.56
2019-03-03T10:55:26.884Z,96963.08
2019-03-03T11:00:30.114Z,96961.52
2019-03-03T11:05:29.317Z,96955.69
2019-03-03T11:10:28.498Z,96950.59
2019-03-03T11:15:30.462Z,96942.08
2019-03-03T11:20:30.666Z,96938.43
2019-03-03T11:25:26.909Z,96932.56
2019-03-03T11:30:28.566Z,96923.55
2019-03-03T11:35:41.057Z,96920.59
2019-03-03T11:40:39.781Z,96919.53
2019-03-03T11:45:39.054Z,96918.05
2019-03-03T11:50:42.416Z,96920.19
2019-03-03T11:55:38.602Z,96923.56
2019-03-03T12:00:51.129Z,96902.17
2019-03-03T12:05:53.071Z,96893.81
2019-03-03T12:10:52.393Z,96889.70
2019-03-03T12:16:00.753Z,96873.77
2019-03-03T12:21:11.977Z,96873.35
2019-03-03T12:26:10.935Z,96854.28
2019-03-03T12:31:10.154Z,96848.38
2019-03-03T12:36:22.574Z,96828.70
2019-03-03T12:41:27.821Z,96815.70
2019-03-03T12:46:24.033Z,96797.45
2019-03-03T12:51:28.730Z,96791.30
2019-03-03T12:56:33.904Z,96792.22
2019-03-03T13:01:45.871Z,96788.56
2019-03-03T13:06:42.157Z,96781.00
2019-03-03T13:11:38.390Z,96766.91
2019-03-03T13:16:40.376Z,96764.58
2019-03-03T13:21:42.698Z,96755.30
2019-03-03T13:26:41.582Z,96744.30
2019-03-03T13:31:54.399Z,96718.11
2019-03-03T13:36:53.324Z,96704.12
2019-03-03T13:41:49.627Z,96701.47
2019-03-03T13:46:44.213Z,96696.41
2019-03-03T13:51:38.873Z,96694.03
2019-03-03T13:56:33.469Z,96691.64
2019-03-03T14:01:28.211Z,96688.52
2019-03-03T14:06:22.919Z,96670.70
2019-03-03T14:11:20.559Z,96666.40
2019-03-03T14:16:15.167Z,96650.28
2019-03-03T14:21:09.915Z,96654.06
2019-03-03T14:26:04.484Z,96654.55
2019-03-03T14:30:59.076Z,96644.14
2019-03-03T14:35:53.746Z,96645.72
2019-03-03T14:40:48.346Z,96631.36
2019-03-03T14:45:43.084Z,96615.16
2019-03-03T14:50:37.817Z,96618.38
2019-03-03T14:55:32.410Z,96610.45
2019-03-03T15:00:32.333Z,96601.75
2019-03-03T15:05:26.902Z,96588.56
2019-03-03T15:10:21.701Z,96582.02
2019-03-03T15:15:26.597Z,96580.44
2019-03-03T15:20:21.337Z,96579.41
2019-03-03T15:25:16.676Z,96572.49
2019-03-03T15:30:23.461Z,96569.30
2019-03-03T15:35:18.334Z,96572.49
2019-03-03T15:40:19.885Z,96562.19
2019-03-03T15:45:18.814Z,96558.73
2019-03-03T15:50:15.613Z,96562.11
2019-03-03T15:55:23.435Z,96553.57
2019-03-03T16:00:28.327Z,96547.94
2019-03-03T16:05:23.170Z,96547.58
2019-03-03T16:10:26.181Z,96532.62
2019-03-03T16:15:21.019Z,96532.58
2019-03-03T16:20:21.939Z,96535.13
2019-03-03T16:25:22.976Z,96526.06
2019-03-03T16:30:23.216Z,96508.90
2019-03-03T16:35:18.916Z,96495.02
2019-03-03T16:40:20.648Z,96498.20
2019-03-03T16:45:17.299Z,96475.84
2019-03-03T16:50:15.496Z,96486.97
2019-03-03T16:55:14.567Z,96482.13
2019-03-03T17:00:19.515Z,96485.06
2019-03-03T17:05:29.169Z,96481.47
2019-03-03T17:10:23.752Z,96459.33
2019-03-03T17:15:30.013Z,96440.87
2019-03-03T17:20:24.607Z,96429.64
2019-03-03T17:25:29.661Z,96446.08
2019-03-03T17:30:28.782Z,96435.39
2019-03-03T17:35:23.586Z,96439.23
2019-03-03T17:40:26.808Z,96436.88
2019-03-03T17:45:24.751Z,96434.03
2019-03-03T17:50:30.957Z,96436.19
2019-03-03T17:55:25.683Z,96438.52
2019-03-03T18:00:30.075Z,96446.96
2019-03-03T18:05:24.680Z,96449.11
2019-03-03T18:10:19.416Z,96447.08
2019-03-03T18:15:16.564Z,96443.02
2019-03-03T18:20:20.859Z,96445.66
2019-03-03T18:25:19.488Z,96432.78
2019-03-03T18:30:20.723Z,96428.83
2019-03-03T18:35:15.526Z,96426.55
2019-03-03T18:40:24.554Z,96414.73
2019-03-03T18:45:21.635Z,96413.70
2019-03-03T18:50:20.478Z,96406.45
2019-03-03T18:55:15.272Z,96403.91
2019-03-03T19:00:23.212Z,96402.72
2019-03-03T19:05:17.948Z,96402.84
2019-03-03T19:10:22.255Z,96402.03
2019-03-03T19:15:20.434Z,96405.59
2019-03-03T19:20:21.665Z,96402.97
2019-03-03T19:25:17.852Z,96409.03
2019-03-03T19:30:24.625Z,96406.62
2019-03-03T19:35:19.297Z,96407.75
2019-03-03T19:40:15.313Z,96407.03
2019-03-03T19:45:20.042Z,96405.72
2019-03-03T19:50:16.486Z,96397.27
2019-03-03T19:55:15.778Z,96402.11
2019-03-03T20:00:20.920Z,96392.14
2019-03-03T20:05:16.040Z,96383.78
2019-03-03T20:10:14.024Z,96376.77
2019-03-03T20:15:12.623Z,96359.09
2019-03-03T20:20:13.950Z,96368.59
2019-03-03T20:25:10.457Z,96365.42
2019-03-03T20:30:08.434Z,96363.78
2019-03-03T20:35:03.316Z,96364.27
2019-03-03T20:39:57.918Z,96363.69
2019-03-03T20:44:52.507Z,96353.40
2019-03-03T20:49:47.114Z,96352.48
2019-03-03T20:54:41.717Z,96344.13
2019-03-03T20:59:36.304Z,96341.72
2019-03-03T21:04:30.898Z,96340.41
2019-03-03T21:09:25.500Z,96336.86
2019-03-03T21:14:20.075Z,96346.24
2019-03-03T21:19:14.665Z,96340.13
2019-03-03T21:24:09.259Z,96342.06
2019-03-03T21:29:03.863Z,96338.07
2019-03-03T21:33:58.434Z,96333.45
2019-03-03T21:38:53.028Z,96335.09
2019-03-03T21:43:47.635Z,96331.90
2019-03-03T21:48:42.237Z,96333.69
2019-03-03T21:53:36.809Z,96300.11
2019-03-03T21:58:31.410Z,96303.18
2019-03-03T22:03:26.072Z,96293.69
2019-03-03T22:08:20.661Z,96300.48
2019-03-03T22:13:15.253Z,96274.74
2019-03-03T22:18:09.854Z,96268.77
2019-03-03T22:23:04.601Z,96260.48
2019-03-03T22:27:59.208Z,96252.00
2019-03-03T22:32:53.815Z,96246.47
2019-03-03T22:37:48.389Z,96233.39
2019-03-03T22:42:42.966Z,96226.67
2019-03-03T22:47:37.577Z,96216.27
2019-03-03T22:52:32.168Z,96209.89
2019-03-03T22:57:26.775Z,96194.95
2019-03-03T23:02:22.161Z,96181.98
2019-03-03T23:07:30.354Z,96180.78
2019-03-03T23:12:46.211Z,96169.57
2019-03-03T23:17:59.867Z,96158.86
2019-03-03T23:23:43.025Z,96147.22
2019-03-03T23:28:37.621Z,96144.92
2019-03-03T23:33:32.204Z,96131.47
2019-03-03T23:38:26.787Z,96113.75
2019-03-03T23:43:21.368Z,96123.32
2019-03-03T23:48:16.020Z,96102.97
2019-03-03T23:53:10.682Z,96108.70
2019-03-03T23:58:05.390Z,96115.34
